AIC650 VEPT-VIDP
Flight info
| Callsign | AIC650 |
|---|---|
| Flight time | 0h 55m |
| Altitude | 34000 |
| Route | PPT J71 KEVOD Z2 JAL JAL6H |
| Aircraft | A320/M-SDE3FGHIRWY/LB1 |
Departure
| Time | 2026-05-04 07:43 |
|---|---|
| Airport | Jay Prakash Narayan Airport (VEPT) |
Arrival
| Time | 2026-05-04 08:38 |
|---|---|
| Airport | Indira Gandhi International Airport (VIDP) |
| Time | Latitude | Longitude | Altitude | Speed | Heading |
|---|---|---|---|---|---|
| 2026-05-04 07:19 | 25.59376 | 85.09057 | 181 ft | 0 kts | 339° |
| 2026-05-04 07:33 | 25.59336 | 85.09073 | 181 ft | 2 kts | 302° |
| 2026-05-04 07:33 | 25.59334 | 85.09082 | 181 ft | 0 kts | 245° |
| 2026-05-04 07:38 | 25.59186 | 85.09036 | 181 ft | 8 kts | 229° |
| 2026-05-04 07:38 | 25.59163 | 85.08985 | 181 ft | 9 kts | 248° |
| 2026-05-04 07:38 | 25.59124 | 85.08879 | 182 ft | 20 kts | 247° |
| 2026-05-04 07:38 | 25.59060 | 85.08698 | 181 ft | 28 kts | 249° |
| 2026-05-04 07:39 | 25.58988 | 85.08502 | 181 ft | 27 kts | 249° |
| 2026-05-04 07:39 | 25.58921 | 85.08310 | 179 ft | 27 kts | 250° |
| 2026-05-04 07:39 | 25.58852 | 85.08116 | 179 ft | 27 kts | 249° |
| 2026-05-04 07:39 | 25.58786 | 85.07931 | 180 ft | 18 kts | 245° |
| 2026-05-04 07:40 | 25.58733 | 85.07855 | 181 ft | 11 kts | 229° |
| 2026-05-04 07:40 | 25.58723 | 85.07809 | 182 ft | 3 kts | 321° |
| 2026-05-04 07:40 | 25.58739 | 85.07811 | 182 ft | 4 kts | 22° |
| 2026-05-04 07:40 | 25.58747 | 85.07827 | 182 ft | 0 kts | 66° |
| 2026-05-04 07:41 | 25.58749 | 85.07833 | 182 ft | 0 kts | 66° |
| 2026-05-04 07:42 | 25.58816 | 85.08022 | 179 ft | 60 kts | 67° |
| 2026-05-04 07:42 | 25.59062 | 85.08703 | 181 ft | 131 kts | 69° |
| 2026-05-04 07:42 | 25.59469 | 85.09794 | 538 ft | 160 kts | 69° |
| 2026-05-04 07:43 | 25.59897 | 85.10947 | 1360 ft | 166 kts | 71° |
| 2026-05-04 07:43 | 25.60244 | 85.12198 | 1912 ft | 174 kts | 91° |
| 2026-05-04 07:43 | 25.59782 | 85.13422 | 2281 ft | 182 kts | 137° |
| 2026-05-04 07:43 | 25.58585 | 85.13953 | 2673 ft | 199 kts | 180° |
| 2026-05-04 07:44 | 25.57284 | 85.13339 | 3117 ft | 218 kts | 224° |
| 2026-05-04 07:44 | 25.56626 | 85.11782 | 3531 ft | 236 kts | 266° |
| 2026-05-04 07:44 | 25.57029 | 85.10026 | 4042 ft | 246 kts | 306° |
| 2026-05-04 07:44 | 25.58287 | 85.08679 | 4548 ft | 258 kts | 326° |
| 2026-05-04 07:45 | 25.59773 | 85.07452 | 5007 ft | 275 kts | 322° |
| 2026-05-04 07:45 | 25.61151 | 85.05905 | 5585 ft | 287 kts | 307° |
| 2026-05-04 07:45 | 25.62286 | 85.04088 | 6370 ft | 288 kts | 301° |
| 2026-05-04 07:45 | 25.63307 | 85.02176 | 7158 ft | 288 kts | 298° |
| 2026-05-04 07:46 | 25.64293 | 85.00236 | 7952 ft | 289 kts | 298° |
| 2026-05-04 07:46 | 25.65288 | 84.98290 | 8733 ft | 291 kts | 299° |
| 2026-05-04 07:46 | 25.66304 | 84.96350 | 9504 ft | 292 kts | 300° |
| 2026-05-04 07:46 | 25.67343 | 84.94409 | 10199 ft | 296 kts | 300° |
| 2026-05-04 07:47 | 25.68421 | 84.92428 | 10550 ft | 312 kts | 300° |
| 2026-05-04 07:47 | 25.69596 | 84.90293 | 10865 ft | 329 kts | 300° |
| 2026-05-04 07:47 | 25.70804 | 84.88107 | 11145 ft | 345 kts | 300° |
| 2026-05-04 07:49 | 25.80671 | 84.70199 | 13807 ft | 409 kts | 300° |
| 2026-05-04 07:49 | 25.82156 | 84.67498 | 14282 ft | 412 kts | 300° |
| 2026-05-04 07:49 | 25.83653 | 84.64774 | 14748 ft | 415 kts | 300° |
| 2026-05-04 07:50 | 25.85159 | 84.62033 | 15197 ft | 417 kts | 299° |
| 2026-05-04 07:50 | 25.86672 | 84.59274 | 15640 ft | 419 kts | 299° |
| 2026-05-04 07:50 | 25.88193 | 84.56497 | 16071 ft | 422 kts | 299° |
| 2026-05-04 07:50 | 25.89718 | 84.53709 | 16482 ft | 424 kts | 299° |
| 2026-05-04 07:51 | 25.91258 | 84.50895 | 16878 ft | 427 kts | 299° |
| 2026-05-04 07:51 | 25.92803 | 84.48073 | 17273 ft | 429 kts | 298° |
| 2026-05-04 07:51 | 25.94355 | 84.45235 | 17655 ft | 431 kts | 298° |
| 2026-05-04 07:51 | 25.95915 | 84.42380 | 18027 ft | 433 kts | 298° |
| 2026-05-04 07:52 | 25.97485 | 84.39510 | 18346 ft | 436 kts | 298° |
| 2026-05-04 07:52 | 25.99062 | 84.36625 | 18645 ft | 438 kts | 298° |
| 2026-05-04 07:52 | 26.00648 | 84.33726 | 18945 ft | 440 kts | 298° |
| 2026-05-04 07:52 | 26.02991 | 84.29426 | 19379 ft | 442 kts | 298° |
| 2026-05-04 07:53 | 26.06185 | 84.23554 | 19949 ft | 445 kts | 298° |
| 2026-05-04 07:54 | 26.29113 | 83.81218 | 23195 ft | 465 kts | 297° |
| 2026-05-04 07:55 | 26.32466 | 83.75038 | 23514 ft | 468 kts | 297° |
| 2026-05-04 07:55 | 26.35845 | 83.68809 | 23832 ft | 468 kts | 297° |
| 2026-05-04 07:55 | 26.39195 | 83.62606 | 24268 ft | 466 kts | 297° |
| 2026-05-04 07:55 | 26.42527 | 83.56421 | 24697 ft | 464 kts | 297° |
| 2026-05-04 07:56 | 26.45845 | 83.50262 | 25146 ft | 463 kts | 297° |
| 2026-05-04 07:56 | 26.49149 | 83.44116 | 25602 ft | 461 kts | 297° |
| 2026-05-04 07:56 | 26.52446 | 83.37976 | 26093 ft | 459 kts | 297° |
| 2026-05-04 07:56 | 26.55722 | 83.31869 | 26614 ft | 457 kts | 297° |
| 2026-05-04 07:57 | 26.58978 | 83.25792 | 27094 ft | 455 kts | 297° |
| 2026-05-04 07:57 | 26.62223 | 83.19731 | 27585 ft | 454 kts | 297° |
| 2026-05-04 07:57 | 26.65452 | 83.13679 | 28088 ft | 453 kts | 297° |
| 2026-05-04 07:57 | 26.68671 | 83.07644 | 28559 ft | 452 kts | 297° |
| 2026-05-04 07:58 | 26.71848 | 83.01675 | 29034 ft | 451 kts | 297° |
| 2026-05-04 07:58 | 26.75046 | 82.95658 | 29495 ft | 451 kts | 297° |
| 2026-05-04 07:58 | 26.78265 | 82.89602 | 29954 ft | 451 kts | 297° |
| 2026-05-04 07:58 | 26.81475 | 82.83559 | 30340 ft | 452 kts | 296° |
| 2026-05-04 07:59 | 26.84697 | 82.77499 | 30705 ft | 453 kts | 296° |
| 2026-05-04 07:59 | 26.87907 | 82.71429 | 31061 ft | 454 kts | 296° |
| 2026-05-04 07:59 | 26.91124 | 82.65320 | 31411 ft | 456 kts | 295° |
| 2026-05-04 07:59 | 26.94346 | 82.59201 | 31770 ft | 457 kts | 295° |
| 2026-05-04 08:00 | 26.97591 | 82.53055 | 32168 ft | 458 kts | 295° |
| 2026-05-04 08:00 | 27.00840 | 82.46901 | 32555 ft | 458 kts | 294° |
| 2026-05-04 08:00 | 27.04058 | 82.40761 | 32975 ft | 457 kts | 294° |
| 2026-05-04 08:02 | 27.19889 | 81.97138 | 33937 ft | 461 kts | 280° |
| 2026-05-04 08:02 | 27.22955 | 81.83142 | 33934 ft | 461 kts | 279° |
| 2026-05-04 08:03 | 27.25995 | 81.69166 | 33933 ft | 460 kts | 279° |
| 2026-05-04 08:03 | 27.29020 | 81.55209 | 33941 ft | 459 kts | 279° |
| 2026-05-04 08:04 | 27.32002 | 81.41380 | 33855 ft | 458 kts | 279° |
| 2026-05-04 08:04 | 27.34987 | 81.27419 | 33906 ft | 458 kts | 279° |
| 2026-05-04 08:05 | 27.37969 | 81.13481 | 33904 ft | 458 kts | 278° |
| 2026-05-04 08:05 | 27.40912 | 80.99576 | 33902 ft | 456 kts | 278° |
| 2026-05-04 08:06 | 27.43829 | 80.85735 | 33903 ft | 453 kts | 278° |
| 2026-05-04 08:06 | 27.46700 | 80.72056 | 33899 ft | 451 kts | 278° |
| 2026-05-04 08:08 | 27.58406 | 80.17370 | 33888 ft | 446 kts | 279° |
| 2026-05-04 08:11 | 27.72750 | 79.56534 | 33863 ft | 451 kts | 288° |
| 2026-05-04 08:11 | 27.79961 | 79.36886 | 33868 ft | 451 kts | 288° |
| 2026-05-04 08:12 | 27.84735 | 79.23806 | 33871 ft | 451 kts | 288° |
| 2026-05-04 08:12 | 27.89501 | 79.10678 | 33879 ft | 450 kts | 288° |
| 2026-05-04 08:13 | 27.94247 | 78.97604 | 33871 ft | 450 kts | 288° |
| 2026-05-04 08:13 | 27.98957 | 78.84583 | 33883 ft | 449 kts | 288° |
| 2026-05-04 08:14 | 28.03662 | 78.71480 | 33883 ft | 449 kts | 288° |
| 2026-05-04 08:16 | 28.21703 | 78.20935 | 33379 ft | 439 kts | 288° |
| 2026-05-04 08:16 | 28.22843 | 78.17720 | 33112 ft | 440 kts | 288° |
| 2026-05-04 08:16 | 28.23980 | 78.14499 | 32859 ft | 440 kts | 288° |
| 2026-05-04 08:17 | 28.25118 | 78.11276 | 32608 ft | 441 kts | 288° |
| 2026-05-04 08:17 | 28.26260 | 78.08039 | 32359 ft | 442 kts | 288° |
| 2026-05-04 08:17 | 28.27399 | 78.04808 | 31833 ft | 442 kts | 288° |
| 2026-05-04 08:17 | 28.28546 | 78.01552 | 30791 ft | 446 kts | 288° |
| 2026-05-04 08:19 | 28.36540 | 77.78855 | 25639 ft | 406 kts | 288° |
| 2026-05-04 08:19 | 28.37563 | 77.75939 | 25526 ft | 390 kts | 288° |
| 2026-05-04 08:20 | 28.38558 | 77.73138 | 25416 ft | 376 kts | 291° |
| 2026-05-04 08:20 | 28.39855 | 77.70604 | 25283 ft | 368 kts | 303° |
| 2026-05-04 08:20 | 28.41576 | 77.68479 | 25063 ft | 364 kts | 313° |
| 2026-05-04 08:20 | 28.43448 | 77.66531 | 24515 ft | 365 kts | 313° |
| 2026-05-04 08:21 | 28.45301 | 77.64599 | 24171 ft | 359 kts | 313° |
| 2026-05-04 08:21 | 28.47131 | 77.62689 | 23749 ft | 356 kts | 313° |
| 2026-05-04 08:21 | 28.48899 | 77.60843 | 23159 ft | 350 kts | 313° |
| 2026-05-04 08:21 | 28.50681 | 77.58980 | 22326 ft | 346 kts | 313° |
| 2026-05-04 08:22 | 28.52438 | 77.57141 | 21770 ft | 341 kts | 313° |
| 2026-05-04 08:22 | 28.54158 | 77.55339 | 21283 ft | 340 kts | 313° |
| 2026-05-04 08:24 | 28.66009 | 77.42919 | 17900 ft | 318 kts | 313° |
| 2026-05-04 08:24 | 28.67632 | 77.41215 | 17422 ft | 316 kts | 313° |
| 2026-05-04 08:24 | 28.69243 | 77.39522 | 16965 ft | 314 kts | 313° |
| 2026-05-04 08:24 | 28.70846 | 77.37834 | 16514 ft | 314 kts | 313° |
| 2026-05-04 08:25 | 28.72449 | 77.36145 | 16057 ft | 315 kts | 313° |
| 2026-05-04 08:25 | 28.74060 | 77.34450 | 15602 ft | 316 kts | 313° |
| 2026-05-04 08:25 | 28.75670 | 77.32762 | 15259 ft | 313 kts | 313° |
| 2026-05-04 08:25 | 28.77276 | 77.31074 | 14829 ft | 314 kts | 313° |
| 2026-05-04 08:26 | 28.78871 | 77.29401 | 14518 ft | 310 kts | 313° |
| 2026-05-04 08:27 | 28.82559 | 77.15468 | 11937 ft | 267 kts | 270° |
| 2026-05-04 08:28 | 28.82612 | 77.13336 | 11534 ft | 268 kts | 270° |
| 2026-05-04 08:28 | 28.82662 | 77.11230 | 11247 ft | 264 kts | 270° |
| 2026-05-04 08:28 | 28.82682 | 77.09165 | 10896 ft | 253 kts | 262° |
| 2026-05-04 08:28 | 28.82266 | 77.07302 | 10636 ft | 239 kts | 244° |
| 2026-05-04 08:29 | 28.81351 | 77.05735 | 10261 ft | 243 kts | 228° |
| 2026-05-04 08:29 | 28.80205 | 77.04302 | 9919 ft | 243 kts | 229° |
| 2026-05-04 08:29 | 28.79095 | 77.02894 | 9544 ft | 234 kts | 229° |
| 2026-05-04 08:31 | 28.71582 | 76.93314 | 7033 ft | 232 kts | 227° |
| 2026-05-04 08:33 | 28.62749 | 76.86730 | 5173 ft | 203 kts | 197° |
| 2026-05-04 08:33 | 28.61433 | 76.86211 | 4918 ft | 199 kts | 188° |
| 2026-05-04 08:35 | 28.57354 | 76.94186 | 3003 ft | 174 kts | 104° |
| 2026-05-04 08:35 | 28.57071 | 76.95512 | 2776 ft | 170 kts | 103° |
| 2026-05-04 08:35 | 28.56802 | 76.96774 | 2566 ft | 158 kts | 104° |
| 2026-05-04 08:35 | 28.56554 | 76.97941 | 2385 ft | 143 kts | 104° |
| 2026-05-04 08:37 | 28.55175 | 77.04397 | 1280 ft | 138 kts | 100° |
| 2026-05-04 08:37 | 28.54948 | 77.05461 | 1089 ft | 140 kts | 103° |
| 2026-05-04 08:37 | 28.54719 | 77.06528 | 900 ft | 138 kts | 102° |
| 2026-05-04 08:38 | 28.54494 | 77.07579 | 754 ft | 131 kts | 104° |
| 2026-05-04 08:38 | 28.54309 | 77.08448 | 751 ft | 88 kts | 103° |
| 2026-05-04 08:38 | 28.54223 | 77.08850 | 751 ft | 25 kts | 103° |